Terminal Aerodrome Forecast
Issued by NWS Wilmington, OH

Home | Current Version | Previous Version | Text Only | Print | Product List | Glossary On
Versions: 1 2 3 4 5 6 7 8 9 10 11 12 13 14 15 16 17 18 19 20 21 22 23 24 25 26 27 28 29 30
000
FTUS41 KILN 261733
TAFDAY
TAF
KDAY 261733Z 2618/2718 30008KT P6SM SCT019 OVC100
     FM261900 28012G18KT P6SM FEW100 BKN140
     FM270000 24005KT P6SM SKC
     FM271300 24015G25KT P6SM SKC=

USA.gov is the U.S. government's official web portal to all federal, state and local government web resources and services.